createdAt,value
2023-02-24T00:02:05.599Z,9.81
2023-02-24T00:04:39.487Z,9.79
2023-02-24T00:07:09.023Z,9.75
2023-02-24T00:09:37.129Z,9.72
2023-02-24T00:12:08.840Z,9.69
2023-02-24T00:14:39.147Z,9.64
2023-02-24T00:17:10.267Z,9.62
2023-02-24T00:19:38.543Z,9.58
2023-02-24T00:22:07.987Z,9.54
2023-02-24T00:24:36.094Z,9.51
2023-02-24T00:27:11.028Z,9.47
2023-02-24T00:29:39.947Z,9.44
2023-02-24T00:32:08.179Z,9.42
2023-02-24T00:34:37.522Z,9.39
2023-02-24T00:37:06.902Z,9.36
2023-02-24T00:39:35.465Z,9.34
2023-02-24T00:42:05.910Z,9.32
2023-02-24T00:44:36.999Z,9.29
2023-02-24T00:47:07.031Z,9.27
2023-02-24T00:49:36.086Z,9.27
2023-02-24T00:52:08.003Z,9.25
2023-02-24T00:54:36.754Z,9.23
2023-02-24T00:57:03.988Z,9.23
2023-02-24T00:59:30.960Z,9.22
2023-02-24T01:01:58.115Z,9.21
2023-02-24T01:04:25.544Z,9.20
2023-02-24T01:06:59.950Z,9.18
2023-02-24T01:09:30.089Z,9.17
2023-02-24T01:12:17.234Z,9.14
2023-02-24T01:14:49.391Z,9.13
2023-02-24T01:17:19.215Z,9.12
2023-02-24T01:19:49.883Z,9.11
2023-02-24T01:22:19.795Z,9.10
2023-02-24T01:24:47.169Z,9.10
2023-02-24T01:27:18.499Z,9.08
2023-02-24T01:29:47.459Z,9.07
2023-02-24T01:32:19.480Z,9.04
2023-02-24T01:34:47.668Z,9.02
2023-02-24T01:37:16.335Z,8.99
2023-02-24T01:39:45.057Z,8.95
2023-02-24T01:42:20.524Z,8.91
2023-02-24T01:44:47.848Z,8.87
2023-02-24T01:47:18.472Z,8.83
2023-02-24T01:49:49.774Z,8.78
2023-02-24T01:52:26.192Z,8.74
2023-02-24T01:55:02.845Z,8.71
2023-02-24T01:57:35.307Z,8.67
2023-02-24T02:00:12.026Z,8.64
2023-02-24T02:02:47.401Z,8.61
2023-02-24T02:05:14.873Z,8.59
2023-02-24T02:07:43.536Z,8.57
2023-02-24T02:10:13.393Z,8.54
2023-02-24T02:12:44.321Z,8.52
2023-02-24T02:15:20.450Z,8.49
2023-02-24T02:18:28.018Z,8.45
2023-02-24T02:21:46.081Z,8.43
2023-02-24T02:24:27.554Z,8.41
2023-02-24T02:27:33.954Z,8.41
2023-02-24T02:31:04.195Z,8.38
2023-02-24T02:34:05.652Z,8.36
2023-02-24T02:36:36.591Z,8.36
2023-02-24T02:39:06.292Z,8.33
2023-02-24T02:42:12.545Z,8.32
2023-02-24T02:45:21.398Z,8.32
2023-02-24T02:47:54.430Z,8.31
2023-02-24T02:50:27.022Z,8.31
2023-02-24T02:53:00.743Z,8.29
2023-02-24T02:55:40.460Z,8.28
2023-02-24T02:58:15.187Z,8.28
2023-02-24T03:00:58.684Z,8.27
2023-02-24T03:03:27.936Z,8.26
2023-02-24T03:06:11.929Z,8.25
2023-02-24T03:08:44.193Z,8.24
2023-02-24T03:11:15.326Z,8.24
2023-02-24T03:13:45.421Z,8.22
2023-02-24T03:16:14.614Z,8.20
2023-02-24T03:18:52.991Z,8.19
2023-02-24T03:21:39.868Z,8.16
2023-02-24T03:24:07.734Z,8.17
2023-02-24T03:27:01.523Z,8.15
2023-02-24T03:29:45.959Z,8.15
2023-02-24T03:32:20.128Z,8.15
2023-02-24T03:35:04.180Z,8.14
2023-02-24T03:37:33.510Z,8.14
2023-02-24T03:40:17.702Z,8.13
2023-02-24T03:42:57.588Z,8.13
2023-02-24T03:45:27.751Z,8.14
2023-02-24T03:47:56.055Z,8.14
2023-02-24T03:50:25.285Z,8.13
2023-02-24T03:53:22.316Z,8.12
2023-02-24T03:56:10.806Z,8.13
2023-02-24T03:58:57.533Z,8.13
2023-02-24T04:01:48.736Z,8.12
2023-02-24T04:04:37.915Z,8.11
2023-02-24T04:07:53.208Z,8.09
2023-02-24T04:10:52.425Z,8.07
2023-02-24T04:13:49.791Z,8.06
2023-02-24T04:16:36.389Z,8.06
2023-02-24T04:19:13.988Z,8.04
2023-02-24T04:21:45.217Z,8.05
2023-02-24T04:24:21.990Z,8.04
2023-02-24T04:26:51.753Z,8.03
2023-02-24T04:29:23.695Z,8.02
2023-02-24T04:31:59.408Z,8.01
2023-02-24T04:34:32.198Z,8.01
2023-02-24T04:37:02.220Z,8.02
2023-02-24T04:39:31.647Z,8.01
2023-02-24T04:42:01.604Z,8.01
2023-02-24T04:44:29.109Z,8.00
2023-02-24T04:46:56.509Z,8.00
2023-02-24T04:49:23.612Z,8.00
2023-02-24T04:51:51.553Z,8.00
2023-02-24T04:54:20.583Z,7.98
2023-02-24T04:56:50.650Z,7.98
2023-02-24T04:59:19.817Z,7.97
2023-02-24T05:01:51.482Z,7.96
2023-02-24T05:04:19.613Z,7.95
2023-02-24T05:06:47.238Z,7.95
2023-02-24T05:09:17.967Z,7.93
2023-02-24T05:11:49.331Z,7.93
2023-02-24T05:14:20.687Z,7.93
2023-02-24T05:16:49.229Z,7.92
2023-02-24T05:19:38.269Z,7.92
2023-02-24T05:22:07.158Z,7.91
2023-02-24T05:24:34.922Z,7.91
2023-02-24T05:27:03.616Z,7.91
2023-02-24T05:29:35.224Z,7.91
2023-02-24T05:32:04.290Z,7.91
2023-02-24T05:34:33.091Z,7.91
2023-02-24T05:37:04.399Z,7.91
2023-02-24T05:39:31.438Z,7.90
2023-02-24T05:41:58.475Z,7.90
2023-02-24T05:44:26.992Z,7.90
2023-02-24T05:46:58.622Z,7.90
2023-02-24T05:49:32.961Z,7.89
2023-02-24T05:52:07.276Z,7.90
2023-02-24T05:54:41.089Z,7.90
2023-02-24T05:57:12.211Z,7.89
2023-02-24T05:59:41.135Z,7.90
2023-02-24T06:02:17.454Z,7.89
2023-02-24T06:04:53.848Z,7.89
2023-02-24T06:07:27.339Z,7.89
2023-02-24T06:09:58.821Z,7.89
2023-02-24T06:12:34.503Z,7.88
2023-02-24T06:15:07.213Z,7.87
2023-02-24T06:17:34.194Z,7.86
2023-02-24T06:20:01.152Z,7.85
2023-02-24T06:22:28.122Z,7.85
2023-02-24T06:24:56.719Z,7.85
2023-02-24T06:27:24.548Z,7.85
2023-02-24T06:29:54.456Z,7.85
2023-02-24T06:32:25.936Z,7.86
2023-02-24T06:34:53.927Z,7.86
2023-02-24T06:37:22.696Z,7.86
2023-02-24T06:39:49.719Z,7.86
2023-02-24T06:42:16.695Z,7.86
2023-02-24T06:44:43.692Z,7.87
2023-02-24T06:47:16.211Z,7.87
2023-02-24T06:49:43.341Z,7.86
2023-02-24T06:52:11.545Z,7.87
2023-02-24T06:54:38.802Z,7.86
2023-02-24T06:57:05.826Z,7.85
2023-02-24T06:59:32.781Z,7.85
2023-02-24T07:02:04.081Z,7.85
2023-02-24T07:04:43.380Z,7.84
2023-02-24T07:07:10.970Z,7.85
2023-02-24T07:09:37.875Z,7.85
2023-02-24T07:12:05.279Z,7.85
2023-02-24T07:14:32.187Z,7.86
2023-02-24T07:16:59.773Z,7.85
2023-02-24T07:19:32.342Z,7.84
2023-02-24T07:22:03.416Z,7.85
2023-02-24T07:24:36.481Z,7.84
2023-02-24T07:27:08.200Z,7.85
2023-02-24T07:29:36.298Z,7.85
2023-02-24T07:32:08.412Z,7.85
2023-02-24T07:34:39.650Z,7.85
2023-02-24T07:37:08.412Z,7.84
2023-02-24T07:39:39.028Z,7.85
2023-02-24T07:42:08.794Z,7.86
2023-02-24T07:44:45.434Z,7.87
2023-02-24T07:47:12.472Z,7.87
2023-02-24T07:49:40.840Z,7.88
2023-02-24T07:52:08.684Z,7.89
2023-02-24T07:54:37.297Z,7.87
2023-02-24T07:57:06.284Z,7.88
2023-02-24T07:59:37.706Z,7.87
2023-02-24T08:02:07.574Z,7.88
2023-02-24T08:04:36.251Z,7.89
2023-02-24T08:07:04.149Z,7.90
2023-02-24T08:09:45.463Z,7.91
2023-02-24T08:12:21.886Z,7.92
2023-02-24T08:14:52.124Z,7.93
2023-02-24T08:17:26.209Z,7.96
2023-02-24T08:20:15.637Z,7.97
2023-02-24T08:22:46.623Z,7.98
2023-02-24T08:25:19.123Z,8.00
2023-02-24T08:28:07.460Z,8.02
2023-02-24T08:30:40.180Z,8.05
2023-02-24T08:33:11.438Z,8.06
2023-02-24T08:35:44.278Z,8.07
2023-02-24T08:38:18.747Z,8.10
2023-02-24T08:40:53.609Z,8.12
2023-02-24T08:43:30.836Z,8.13
2023-02-24T08:46:13.291Z,8.15
2023-02-24T08:48:46.470Z,8.19
2023-02-24T08:51:35.823Z,8.21
2023-02-24T08:54:31.861Z,8.25
2023-02-24T08:57:08.105Z,8.28
2023-02-24T08:59:40.998Z,8.32
2023-02-24T09:02:18.755Z,8.34
2023-02-24T09:04:49.058Z,8.36
2023-02-24T09:07:22.118Z,8.39
2023-02-24T09:09:49.475Z,8.41
2023-02-24T09:12:24.794Z,8.43
2023-02-24T09:15:00.986Z,8.45
2023-02-24T09:17:40.329Z,8.48
2023-02-24T09:20:32.235Z,8.51
2023-02-24T09:23:07.505Z,8.52
2023-02-24T09:25:49.279Z,8.57
2023-02-24T09:28:24.555Z,8.60
2023-02-24T09:30:55.034Z,8.63
2023-02-24T09:33:29.391Z,8.68
2023-02-24T09:36:10.321Z,8.78
2023-02-24T09:38:59.509Z,8.90
2023-02-24T09:41:56.157Z,9.04
2023-02-24T09:44:26.165Z,9.17
2023-02-24T09:47:00.605Z,9.30
2023-02-24T09:49:46.508Z,9.41
2023-02-24T09:52:17.580Z,9.53
2023-02-24T09:55:09.081Z,9.62
2023-02-24T09:58:16.921Z,9.69
2023-02-24T10:01:20.983Z,9.80
2023-02-24T10:04:18.562Z,9.94
2023-02-24T10:06:58.782Z,10.06
2023-02-24T10:10:19.274Z,10.15
2023-02-24T10:13:17.159Z,10.27
2023-02-24T10:15:57.825Z,10.39
2023-02-24T10:19:01.227Z,10.53
2023-02-24T10:22:02.685Z,10.64
2023-02-24T10:24:41.252Z,10.74
2023-02-24T10:27:23.858Z,10.80
2023-02-24T10:30:19.646Z,10.87
2023-02-24T10:32:58.629Z,10.91
2023-02-24T10:35:33.551Z,10.94
2023-02-24T10:38:05.762Z,10.97
2023-02-24T10:40:58.529Z,11.02
2023-02-24T10:43:30.272Z,11.04
2023-02-24T10:46:06.805Z,11.06
2023-02-24T10:48:42.247Z,11.10
2023-02-24T10:51:30.222Z,11.14
2023-02-24T10:54:31.343Z,11.21
2023-02-24T10:57:07.788Z,11.28
2023-02-24T11:00:15.507Z,11.33
2023-02-24T11:03:22.026Z,11.38
2023-02-24T11:06:03.934Z,11.43
2023-02-24T11:08:39.673Z,11.47
2023-02-24T11:11:29.720Z,11.50
2023-02-24T11:14:21.275Z,11.51
2023-02-24T11:17:11.836Z,11.48
2023-02-24T11:19:55.485Z,11.45
2023-02-24T11:22:35.752Z,11.42
2023-02-24T11:25:27.289Z,11.36
2023-02-24T11:27:57.733Z,11.31
2023-02-24T11:30:54.751Z,11.33
2023-02-24T11:34:10.488Z,11.40
2023-02-24T11:36:48.974Z,11.51
2023-02-24T11:39:45.960Z,11.61
2023-02-24T11:42:21.462Z,11.67
2023-02-24T11:45:13.106Z,11.78
2023-02-24T11:47:50.105Z,11.82
2023-02-24T11:50:50.473Z,11.89
2023-02-24T11:53:45.808Z,11.90
2023-02-24T11:56:28.171Z,11.95
2023-02-24T11:59:12.700Z,12.00
2023-02-24T12:01:48.426Z,12.07
2023-02-24T12:04:39.312Z,12.18
2023-02-24T12:07:32.356Z,12.31
2023-02-24T12:10:17.867Z,12.48
2023-02-24T12:12:59.910Z,12.64
2023-02-24T12:15:43.009Z,12.76
2023-02-24T12:18:40.894Z,12.91
2023-02-24T12:21:09.998Z,13.04
2023-02-24T12:23:44.492Z,13.18
2023-02-24T12:26:42.575Z,13.30
2023-02-24T12:30:07.668Z,13.41
2023-02-24T12:32:34.686Z,13.38
2023-02-24T12:35:22.521Z,13.32
2023-02-24T12:38:17.665Z,13.25
2023-02-24T12:41:06.631Z,13.13
2023-02-24T12:43:58.262Z,12.99
2023-02-24T12:46:37.244Z,12.80
2023-02-24T12:49:40.250Z,12.65
2023-02-24T12:52:40.820Z,12.50
2023-02-24T12:55:25.820Z,12.33
2023-02-24T12:58:26.434Z,12.18
2023-02-24T13:01:15.400Z,12.09
2023-02-24T13:03:59.660Z,12.04
2023-02-24T13:06:57.095Z,12.06
2023-02-24T13:10:15.405Z,12.07
2023-02-24T13:13:30.187Z,12.06
2023-02-24T13:16:02.137Z,12.03
2023-02-24T13:18:35.817Z,11.99
2023-02-24T13:21:18.708Z,11.98
2023-02-24T13:24:03.397Z,11.96
2023-02-24T13:26:32.751Z,11.96
2023-02-24T13:29:12.740Z,11.96
2023-02-24T13:31:47.820Z,11.95
2023-02-24T13:34:22.024Z,12.00
2023-02-24T13:36:50.661Z,12.08
2023-02-24T13:39:37.532Z,12.19
2023-02-24T13:42:26.245Z,12.25
2023-02-24T13:45:20.966Z,12.30
2023-02-24T13:48:01.810Z,12.33
2023-02-24T13:50:43.369Z,12.41
2023-02-24T13:53:23.719Z,12.55
2023-02-24T13:56:34.027Z,12.77
2023-02-24T13:59:15.802Z,12.95
2023-02-24T14:02:16.792Z,13.09
2023-02-24T14:04:55.079Z,13.15
2023-02-24T14:07:31.319Z,13.14
2023-02-24T14:10:02.598Z,13.12
2023-02-24T14:12:35.965Z,13.07
2023-02-24T14:15:05.165Z,12.99
2023-02-24T14:17:37.179Z,12.96
2023-02-24T14:20:09.853Z,12.88
2023-02-24T14:22:44.626Z,12.78
2023-02-24T14:25:13.336Z,12.66
2023-02-24T14:27:42.954Z,12.59
2023-02-24T14:30:28.299Z,12.50
2023-02-24T14:32:55.370Z,12.39
2023-02-24T14:35:45.204Z,12.31
2023-02-24T14:38:34.929Z,12.18
2023-02-24T14:41:05.631Z,12.10
2023-02-24T14:43:39.737Z,12.06
2023-02-24T14:46:06.862Z,11.99
2023-02-24T14:48:33.883Z,11.95
2023-02-24T14:51:12.573Z,11.94
2023-02-24T14:53:50.037Z,11.92
2023-02-24T14:56:19.394Z,11.90
2023-02-24T14:58:55.883Z,11.91
2023-02-24T15:01:33.714Z,11.92
2023-02-24T15:04:30.397Z,11.90
2023-02-24T15:06:57.532Z,11.89
2023-02-24T15:09:34.133Z,11.85
2023-02-24T15:12:19.244Z,11.83
2023-02-24T15:15:08.526Z,11.80
2023-02-24T15:17:40.860Z,11.78
2023-02-24T15:20:32.651Z,11.72
2023-02-24T15:23:00.160Z,11.68
2023-02-24T15:25:48.122Z,11.64
2023-02-24T15:28:30.877Z,11.59
2023-02-24T15:31:19.780Z,11.56
2023-02-24T15:34:00.225Z,11.53
2023-02-24T15:36:33.504Z,11.49
2023-02-24T15:39:06.656Z,11.48
2023-02-24T15:41:44.037Z,11.45
2023-02-24T15:44:31.397Z,11.41
2023-02-24T15:47:00.881Z,11.36
2023-02-24T15:49:27.858Z,11.33
2023-02-24T15:51:59.523Z,11.31
2023-02-24T15:54:36.275Z,11.27
2023-02-24T15:57:05.276Z,11.23
2023-02-24T15:59:32.492Z,11.17
2023-02-24T16:01:59.420Z,11.13
2023-02-24T16:04:27.511Z,11.09
2023-02-24T16:06:57.508Z,11.04
2023-02-24T16:09:37.411Z,11.01
2023-02-24T16:12:21.843Z,10.99
2023-02-24T16:15:02.104Z,10.97
2023-02-24T16:17:40.877Z,10.93
2023-02-24T16:20:28.132Z,10.90
2023-02-24T16:23:00.673Z,10.88
2023-02-24T16:25:30.107Z,10.86
2023-02-24T16:27:59.617Z,10.82
2023-02-24T16:30:30.326Z,10.78
2023-02-24T16:33:01.111Z,10.76
2023-02-24T16:35:30.898Z,10.73
2023-02-24T16:37:57.815Z,10.70
2023-02-24T16:40:30.705Z,10.64
2023-02-24T16:42:57.702Z,10.58
2023-02-24T16:45:29.370Z,10.53
2023-02-24T16:48:02.157Z,10.44
2023-02-24T16:50:39.093Z,10.35
2023-02-24T16:53:18.608Z,10.29
2023-02-24T16:55:47.142Z,10.21
2023-02-24T16:58:15.089Z,10.14
2023-02-24T17:00:46.422Z,10.08
2023-02-24T17:03:33.334Z,10.02
2023-02-24T17:06:00.431Z,9.96
2023-02-24T17:08:27.603Z,9.92
2023-02-24T17:10:54.686Z,9.86
2023-02-24T17:13:22.432Z,9.80
2023-02-24T17:15:56.907Z,9.76
2023-02-24T17:18:25.779Z,9.71
2023-02-24T17:20:53.467Z,9.67
2023-02-24T17:23:20.616Z,9.63
2023-02-24T17:25:54.781Z,9.59
2023-02-24T17:28:22.214Z,9.54
2023-02-24T17:30:49.232Z,9.49
2023-02-24T17:33:16.260Z,9.46
2023-02-24T17:35:43.904Z,9.42
2023-02-24T17:38:22.266Z,9.38
2023-02-24T17:40:49.233Z,9.35
2023-02-24T17:43:16.228Z,9.31
2023-02-24T17:45:46.041Z,9.27
2023-02-24T17:48:15.097Z,9.23
2023-02-24T17:50:43.791Z,9.20
2023-02-24T17:53:10.961Z,9.17
2023-02-24T17:55:38.268Z,9.13
2023-02-24T17:58:05.452Z,9.10
2023-02-24T18:00:32.446Z,9.07
2023-02-24T18:03:01.638Z,9.02
2023-02-24T18:05:29.886Z,9.01
2023-02-24T18:07:59.953Z,8.97
2023-02-24T18:10:27.313Z,8.97
2023-02-24T18:12:54.277Z,8.96
2023-02-24T18:15:21.243Z,8.93
2023-02-24T18:17:48.172Z,8.92
2023-02-24T18:20:15.168Z,8.91
2023-02-24T18:22:42.233Z,8.91
2023-02-24T18:25:09.716Z,8.89
2023-02-24T18:27:36.855Z,8.89
2023-02-24T18:30:06.685Z,8.89
2023-02-24T18:32:34.419Z,8.89
2023-02-24T18:35:01.523Z,8.89
2023-02-24T18:37:28.493Z,8.87
2023-02-24T18:39:55.508Z,8.86
2023-02-24T18:42:22.586Z,8.86
2023-02-24T18:44:49.496Z,8.84
2023-02-24T18:47:16.561Z,8.81
2023-02-24T18:49:43.496Z,8.79
2023-02-24T18:52:11.729Z,8.76
2023-02-24T18:54:39.073Z,8.73
2023-02-24T18:57:05.998Z,8.69
2023-02-24T18:59:33.149Z,8.66
2023-02-24T19:02:00.218Z,8.63
2023-02-24T19:04:27.230Z,8.58
2023-02-24T19:06:54.250Z,8.52
2023-02-24T19:09:22.318Z,8.49
2023-02-24T19:11:50.182Z,8.43
2023-02-24T19:14:17.721Z,8.39
2023-02-24T19:16:45.208Z,8.34
2023-02-24T19:19:16.384Z,8.30
2023-02-24T19:21:45.324Z,8.25
2023-02-24T19:24:13.665Z,8.21
2023-02-24T19:26:42.542Z,8.19
2023-02-24T19:29:10.784Z,8.15
2023-02-24T19:31:38.744Z,8.14
2023-02-24T19:34:11.042Z,8.12
2023-02-24T19:36:38.900Z,8.11
2023-02-24T19:39:12.218Z,8.06
2023-02-24T19:41:39.314Z,8.03
2023-02-24T19:44:06.475Z,8.00
2023-02-24T19:46:34.254Z,7.96
2023-02-24T19:49:01.805Z,7.91
2023-02-24T19:51:29.587Z,7.87
2023-02-24T19:54:00.307Z,7.84
2023-02-24T19:56:31.185Z,7.79
2023-02-24T19:59:00.056Z,7.78
2023-02-24T20:01:29.561Z,7.75
2023-02-24T20:04:01.488Z,7.74
2023-02-24T20:06:33.465Z,7.71
2023-02-24T20:09:00.735Z,7.68
2023-02-24T20:11:29.712Z,7.63
2023-02-24T20:13:59.552Z,7.58
2023-02-24T20:16:31.954Z,7.51
2023-02-24T20:19:00.016Z,7.43
2023-02-24T20:21:27.906Z,7.35
2023-02-24T20:23:54.841Z,7.28
2023-02-24T20:26:22.536Z,7.22
2023-02-24T20:28:49.701Z,7.15
2023-02-24T20:31:19.442Z,7.09
2023-02-24T20:33:48.538Z,7.03
2023-02-24T20:36:22.587Z,6.99
2023-02-24T20:38:50.518Z,6.95
2023-02-24T20:41:19.258Z,6.91
2023-02-24T20:43:46.704Z,6.88
2023-02-24T20:46:17.916Z,6.85
2023-02-24T20:48:45.231Z,6.81
2023-02-24T20:51:12.676Z,6.78
2023-02-24T20:53:56.138Z,6.74
2023-02-24T20:56:25.477Z,6.72
2023-02-24T20:58:59.889Z,6.69
2023-02-24T21:01:28.561Z,6.69
2023-02-24T21:03:55.654Z,6.67
2023-02-24T21:06:23.116Z,6.67
2023-02-24T21:08:51.074Z,6.66
2023-02-24T21:11:18.087Z,6.67
2023-02-24T21:13:49.249Z,6.66
2023-02-24T21:16:17.894Z,6.63
2023-02-24T21:18:47.405Z,6.62
2023-02-24T21:21:15.274Z,6.59
2023-02-24T21:23:43.617Z,6.57
2023-02-24T21:26:12.551Z,6.54
2023-02-24T21:28:40.543Z,6.52
2023-02-24T21:31:14.188Z,6.50
2023-02-24T21:33:41.493Z,6.48
2023-02-24T21:36:14.246Z,6.47
2023-02-24T21:38:41.509Z,6.46
2023-02-24T21:41:14.571Z,6.44
2023-02-24T21:43:44.025Z,6.43
2023-02-24T21:46:13.333Z,6.41
2023-02-24T21:48:41.682Z,6.39
2023-02-24T21:51:11.918Z,6.36
2023-02-24T21:53:43.370Z,6.34
2023-02-24T21:56:22.131Z,6.31
2023-02-24T21:58:55.733Z,6.28
2023-02-24T22:01:27.292Z,6.24
2023-02-24T22:03:56.923Z,6.20
2023-02-24T22:06:26.155Z,6.18
2023-02-24T22:08:55.276Z,6.13
2023-02-24T22:11:23.612Z,6.12
2023-02-24T22:13:50.853Z,6.09
2023-02-24T22:16:25.190Z,6.06
2023-02-24T22:18:55.148Z,6.05
2023-02-24T22:21:28.144Z,6.01
2023-02-24T22:23:59.417Z,5.98
2023-02-24T22:26:28.580Z,5.96
2023-02-24T22:28:55.650Z,5.95
2023-02-24T22:31:28.282Z,5.93
2023-02-24T22:33:55.388Z,5.91
2023-02-24T22:36:25.900Z,5.90
2023-02-24T22:38:55.614Z,5.89
2023-02-24T22:41:29.669Z,5.87
2023-02-24T22:43:56.637Z,5.86
2023-02-24T22:46:37.227Z,5.85
2023-02-24T22:49:05.517Z,5.85
2023-02-24T22:51:32.596Z,5.84
2023-02-24T22:53:59.568Z,5.82
2023-02-24T22:56:28.947Z,5.82
2023-02-24T22:58:57.144Z,5.81
2023-02-24T23:01:30.171Z,5.80
2023-02-24T23:04:01.246Z,5.78
2023-02-24T23:06:29.337Z,5.77
2023-02-24T23:08:59.437Z,5.76
2023-02-24T23:11:33.127Z,5.74
2023-02-24T23:14:05.393Z,5.74
2023-02-24T23:16:35.232Z,5.74
2023-02-24T23:19:12.804Z,5.73
2023-02-24T23:21:46.155Z,5.72
2023-02-24T23:24:15.087Z,5.72
2023-02-24T23:26:51.774Z,5.72
2023-02-24T23:29:19.547Z,5.73
2023-02-24T23:31:47.758Z,5.72
2023-02-24T23:34:15.622Z,5.71
2023-02-24T23:36:45.913Z,5.71
2023-02-24T23:39:16.307Z,5.70
2023-02-24T23:41:43.937Z,5.69
2023-02-24T23:44:12.263Z,5.69
2023-02-24T23:46:39.290Z,5.69
2023-02-24T23:49:06.304Z,5.69
2023-02-24T23:51:49.830Z,5.70
2023-02-24T23:54:20.325Z,5.70
2023-02-24T23:56:47.764Z,5.69
2023-02-24T23:59:15.259Z,5.68
